Time;durP1;ratioP1;P1;durP2;ratioP2;P2;SDS_P1;SDS_P2;PMS_P1;PMS_P2;Temp;Humidity;BMP_temperature;BMP_pressure;BME280_temperature;BME280_humidity;BME280_pressure;Samples;Min_cycle;Max_cycle;Signal;HPM_P1;HPM_P2
2022/04/28 00:00:56;;;;;;;14.00;2.70;;;14.10;99.90;;;;;;5081880;28;20194;-71
2022/04/28 00:03:28;;;;;;;8.87;2.30;;;14.10;99.90;;;;;;5069812;28;20722;-71
2022/04/28 00:06:01;;;;;;;18.47;2.63;;;14.10;99.90;;;;;;5076276;28;20293;-71
2022/04/28 00:08:32;;;;;;;17.20;2.33;;;14.10;99.90;;;;;;5062693;28;20194;-71
2022/04/28 00:11:02;;;;;;;15.00;2.47;;;14.10;99.90;;;;;;5060148;28;20190;-71
2022/04/28 00:13:32;;;;;;;12.87;2.93;;;14.10;99.90;;;;;;5086937;28;20194;-71
2022/04/28 00:15:58;;;;;;;14.40;2.83;;;14.20;99.90;;;;;;5067833;28;20190;-71
2022/04/28 00:18:24;;;;;;;11.67;2.23;;;14.20;99.90;;;;;;5079084;28;20183;-71
2022/04/28 00:20:51;;;;;;;10.07;2.30;;;14.20;99.90;;;;;;5065285;28;20232;-71
2022/04/28 00:23:17;;;;;;;14.50;3.00;;;14.20;99.90;;;;;;5049940;28;20618;-72
2022/04/28 00:25:47;;;;;;;15.13;2.77;;;14.20;99.90;;;;;;5069966;28;20244;-71
2022/04/28 00:28:20;;;;;;;17.17;3.30;;;14.20;99.90;;;;;;5085807;28;20192;-71
2022/04/28 00:30:50;;;;;;;17.70;2.90;;;14.20;99.90;;;;;;5074888;28;20835;-71
2022/04/28 00:33:17;;;;;;;11.83;2.30;;;14.20;99.90;;;;;;5062606;28;20221;-70
2022/04/28 00:35:45;;;;;;;9.90;2.97;;;14.20;99.90;;;;;;5079290;28;20226;-71
2022/04/28 00:38:12;;;;;;;10.93;2.87;;;14.10;99.90;;;;;;5070054;28;20631;-71
2022/04/28 00:40:38;;;;;;;14.33;2.87;;;14.10;99.90;;;;;;5082172;28;20192;-71
2022/04/28 00:43:23;;;;;;;17.20;2.90;;;14.10;99.90;;;;;;5064451;28;20837;-70
2022/04/28 00:45:52;;;;;;;19.33;3.03;;;14.10;99.90;;;;;;5054513;28;20186;-71
2022/04/28 00:51:13;;;;;;;9.30;2.50;;;14.10;99.90;;;;;;5039525;28;20224;-71
2022/04/28 00:53:51;;;;;;;10.33;2.70;;;14.10;99.90;;;;;;5073729;28;20194;-70
2022/04/28 00:56:21;;;;;;;12.20;2.90;;;14.00;99.90;;;;;;5090283;28;20273;-70
2022/04/28 00:58:50;;;;;;;14.30;3.23;;;14.10;99.90;;;;;;5055581;28;20213;-71
2022/04/28 01:01:17;;;;;;;15.70;2.63;;;14.10;99.90;;;;;;5080587;28;20205;-71
2022/04/28 01:03:46;;;;;;;14.97;3.17;;;14.10;99.90;;;;;;5070719;28;20186;-70
2022/04/28 01:06:14;;;;;;;8.47;2.80;;;14.10;99.90;;;;;;5060269;28;20183;-71
2022/04/28 01:08:42;;;;;;;11.70;3.10;;;14.10;99.90;;;;;;5068616;28;20209;-71
2022/04/28 01:11:09;;;;;;;10.67;2.70;;;14.10;99.90;;;;;;5068889;28;20187;-71
2022/04/28 01:13:43;;;;;;;13.50;2.50;;;14.10;99.90;;;;;;5071292;28;20194;-71
2022/04/28 01:16:11;;;;;;;15.17;2.77;;;14.10;99.90;;;;;;5082438;28;20186;-70
2022/04/28 01:18:38;;;;;;;12.87;2.70;;;14.00;99.90;;;;;;5069683;28;20255;-70
2022/04/28 01:21:06;;;;;;;21.53;3.00;;;14.10;99.90;;;;;;5052633;28;20191;-71
2022/04/28 01:23:35;;;;;;;9.07;2.33;;;14.00;99.90;;;;;;5053941;28;20237;-71
2022/04/28 01:26:09;;;;;;;8.30;2.30;;;14.00;99.90;;;;;;5069668;28;20187;-71
2022/04/28 01:28:39;;;;;;;9.03;2.53;;;14.00;99.90;;;;;;5068545;28;20277;-70
2022/04/28 01:31:11;;;;;;;16.30;3.33;;;14.00;99.90;;;;;;5055950;28;20182;-72
2022/04/28 01:33:38;;;;;;;9.73;2.50;;;14.00;99.90;;;;;;5064038;28;20190;-70
2022/04/28 01:36:05;;;;;;;13.07;2.93;;;14.00;99.90;;;;;;5083911;28;20197;-70
2022/04/28 01:38:32;;;;;;;17.00;2.73;;;14.00;99.90;;;;;;5062375;28;20616;-71
2022/04/28 01:40:58;;;;;;;12.50;2.80;;;14.00;99.90;;;;;;5068553;28;20227;-71
2022/04/28 01:43:25;;;;;;;13.67;2.50;;;14.00;99.90;;;;;;5079309;28;20190;-70
2022/04/28 01:45:51;;;;;;;12.70;3.23;;;13.90;99.90;;;;;;5063408;28;20574;-71
2022/04/28 01:48:21;;;;;;;10.20;2.57;;;14.00;99.90;;;;;;5087247;28;20198;-71
2022/04/28 01:56:24;;;;;;;11.13;2.50;;;13.90;99.90;;;;;;5080153;28;20190;-70
2022/04/28 01:58:53;;;;;;;12.50;2.80;;;13.90;99.90;;;;;;5043174;28;20210;-71
2022/04/28 02:01:22;;;;;;;12.50;2.70;;;13.90;99.90;;;;;;5069797;28;20201;-71
2022/04/28 02:03:48;;;;;;;8.87;2.57;;;13.90;99.90;;;;;;5077665;28;20186;-70
2022/04/28 02:06:17;;;;;;;11.67;2.60;;;13.90;99.90;;;;;;5066131;28;20216;-71
2022/04/28 02:08:45;;;;;;;13.73;2.50;;;13.90;99.90;;;;;;5050158;28;20213;-71
2022/04/28 02:11:14;;;;;;;12.90;2.57;;;13.90;99.90;;;;;;5078703;28;20626;-71
2022/04/28 02:13:40;;;;;;;10.33;2.60;;;13.90;99.90;;;;;;5051504;28;20232;-71
2022/04/28 02:16:18;;;;;;;14.40;2.93;;;13.80;99.90;;;;;;5072856;28;20239;-71
2022/04/28 02:18:44;;;;;;;8.10;2.40;;;13.80;99.90;;;;;;5053955;28;20244;-71
2022/04/28 02:21:10;;;;;;;11.90;2.47;;;13.80;99.90;;;;;;5084671;28;20200;-70
2022/04/28 02:23:37;;;;;;;12.90;2.37;;;13.80;99.90;;;;;;5049494;28;20186;-71
2022/04/28 02:26:04;;;;;;;13.53;2.80;;;13.80;99.90;;;;;;5066302;28;20182;-71
2022/04/28 02:28:30;;;;;;;9.77;2.57;;;13.70;99.90;;;;;;5067967;28;20178;-71
2022/04/28 02:30:56;;;;;;;12.87;2.50;;;13.80;99.90;;;;;;5069402;28;20219;-71
2022/04/28 02:33:24;;;;;;;18.60;2.67;;;13.80;99.90;;;;;;5061338;28;20215;-70
2022/04/28 02:35:50;;;;;;;16.07;2.87;;;13.70;99.90;;;;;;5053838;28;20248;-71
2022/04/28 02:38:17;;;;;;;9.47;2.47;;;13.70;99.90;;;;;;5072132;28;20884;-71
2022/04/28 02:40:47;;;;;;;12.37;2.40;;;13.70;99.90;;;;;;5063573;28;20186;-71
2022/04/28 02:43:14;;;;;;;18.53;2.77;;;13.70;99.90;;;;;;5062275;28;20706;-71
2022/04/28 02:45:40;;;;;;;13.70;2.70;;;13.70;99.90;;;;;;5070718;28;20189;-71
2022/04/28 02:48:08;;;;;;;12.10;3.10;;;13.70;99.90;;;;;;5081156;28;20196;-71
2022/04/28 02:50:36;;;;;;;16.00;3.00;;;13.60;99.90;;;;;;5067783;28;20193;-70
2022/04/28 02:53:02;;;;;;;10.40;2.73;;;13.60;99.90;;;;;;5050976;28;20194;-71
2022/04/28 02:55:28;;;;;;;14.00;3.00;;;13.60;99.90;;;;;;5085150;28;20205;-71
2022/04/28 02:57:56;;;;;;;16.63;3.07;;;13.60;99.90;;;;;;5077911;28;20190;-71
2022/04/28 03:00:23;;;;;;;17.13;2.53;;;13.60;99.90;;;;;;5066405;28;20271;-70
2022/04/28 03:02:49;;;;;;;15.27;3.07;;;13.50;99.90;;;;;;5066452;28;20544;-70
2022/04/28 03:05:20;;;;;;;17.97;3.33;;;13.50;99.90;;;;;;5069349;28;20626;-71
2022/04/28 03:10:55;;;;;;;19.33;2.80;;;13.40;99.90;;;;;;5060087;28;20197;-71
2022/04/28 03:13:23;;;;;;;24.70;3.83;;;13.40;99.90;;;;;;5051887;28;20189;-71
2022/04/28 03:15:52;;;;;;;13.37;2.47;;;13.40;99.90;;;;;;5078565;28;20220;-70
2022/04/28 03:18:19;;;;;;;14.53;2.90;;;13.40;99.90;;;;;;5078968;28;20190;-70
2022/04/28 03:20:45;;;;;;;8.67;2.80;;;13.40;99.90;;;;;;5048743;28;20778;-71
2022/04/28 03:23:13;;;;;;;9.00;2.83;;;13.30;99.90;;;;;;5065232;28;20193;-70
2022/04/28 03:25:43;;;;;;;12.97;2.70;;;13.30;99.90;;;;;;5068364;28;20655;-71
2022/04/28 03:28:09;;;;;;;14.87;3.30;;;13.30;99.90;;;;;;5066673;28;20205;-71
2022/04/28 03:30:41;;;;;;;13.40;2.80;;;13.30;99.90;;;;;;5078931;28;20896;-71
2022/04/28 03:33:07;;;;;;;18.70;3.17;;;13.30;99.90;;;;;;5068218;28;20208;-71
2022/04/28 03:35:33;;;;;;;19.53;3.10;;;13.20;99.90;;;;;;5069197;28;20232;-70
2022/04/28 03:38:01;;;;;;;11.73;2.60;;;13.20;99.90;;;;;;5067811;28;20183;-70
2022/04/28 03:40:28;;;;;;;14.67;2.97;;;13.20;99.90;;;;;;5052950;28;20182;-72
2022/04/28 03:42:54;;;;;;;17.37;3.03;;;13.20;99.90;;;;;;5067119;28;20194;-71
2022/04/28 03:45:21;;;;;;;11.70;2.80;;;13.20;99.90;;;;;;5068060;28;20210;-71
2022/04/28 03:47:47;;;;;;;10.53;2.60;;;13.20;99.90;;;;;;5063878;28;20232;-71
2022/04/28 03:50:13;;;;;;;21.17;3.13;;;13.20;99.90;;;;;;5064065;28;20835;-71
2022/04/28 03:52:40;;;;;;;11.13;2.83;;;13.10;99.90;;;;;;5062864;28;20948;-71
2022/04/28 03:55:10;;;;;;;13.50;3.63;;;13.10;99.90;;;;;;5087315;28;20206;-71
2022/04/28 03:57:37;;;;;;;13.67;2.93;;;13.10;99.90;;;;;;5071183;28;20182;-70
2022/04/28 04:00:08;;;;;;;18.13;3.97;;;13.10;99.90;;;;;;5067104;28;20590;-70
2022/04/28 04:02:35;;;;;;;15.23;2.93;;;13.10;99.90;;;;;;5060610;28;20195;-71
2022/04/28 04:05:10;;;;;;;13.60;3.50;;;13.10;99.90;;;;;;5065981;28;20244;-70
2022/04/28 04:07:38;;;;;;;14.93;3.10;;;13.10;99.90;;;;;;5050795;28;20228;-71
2022/04/28 04:10:06;;;;;;;12.37;2.77;;;13.10;99.90;;;;;;5070278;28;20780;-71
2022/04/28 04:12:36;;;;;;;14.97;3.37;;;13.10;99.90;;;;;;5077941;28;20198;-70
2022/04/28 04:15:06;;;;;;;15.20;3.00;;;13.10;99.90;;;;;;5073747;28;20221;-71
2022/04/28 04:17:45;;;;;;;15.93;3.47;;;13.10;99.90;;;;;;5069995;28;20236;-70
2022/04/28 04:20:15;;;;;;;21.13;3.20;;;13.10;99.90;;;;;;5072217;28;20190;-71
2022/04/28 04:22:42;;;;;;;18.53;3.93;;;13.10;99.90;;;;;;5071890;28;20187;-71
2022/04/28 04:25:10;;;;;;;15.90;3.37;;;13.10;99.90;;;;;;5057552;28;20239;-71
2022/04/28 04:27:37;;;;;;;9.10;2.83;;;13.20;99.90;;;;;;5071054;28;20232;-70
2022/04/28 04:33:11;;;;;;;24.20;3.67;;;13.10;99.90;;;;;;4989545;28;20217;-71
2022/04/28 04:35:38;;;;;;;16.87;3.83;;;13.20;99.90;;;;;;5037218;28;20246;-70
2022/04/28 04:38:08;;;;;;;18.87;3.70;;;13.20;99.90;;;;;;5066318;28;20209;-71
2022/04/28 04:40:34;;;;;;;14.30;2.90;;;13.20;99.90;;;;;;5068592;28;20249;-71
2022/04/28 04:43:05;;;;;;;14.77;3.57;;;13.20;99.90;;;;;;5071620;28;20194;-71
2022/04/28 04:45:32;;;;;;;13.63;3.37;;;13.20;99.90;;;;;;5074240;28;20225;-71
2022/04/28 04:47:59;;;;;;;10.10;2.97;;;13.30;99.90;;;;;;5054729;28;20191;-70
2022/04/28 04:50:25;;;;;;;8.37;2.80;;;13.30;99.90;;;;;;5064621;28;20209;-71
2022/04/28 04:52:52;;;;;;;8.30;2.97;;;13.30;99.90;;;;;;5082132;28;20190;-71
2022/04/28 04:55:18;;;;;;;14.67;3.67;;;13.30;99.90;;;;;;5086051;28;20248;-71
2022/04/28 04:57:45;;;;;;;12.87;2.97;;;13.30;99.90;;;;;;5057217;28;20203;-70
2022/04/28 05:00:13;;;;;;;13.13;3.40;;;13.40;99.90;;;;;;5061002;28;20217;-70
2022/04/28 05:02:39;;;;;;;14.10;3.27;;;13.40;99.90;;;;;;5065569;28;20543;-71
2022/04/28 05:05:06;;;;;;;15.87;2.83;;;13.50;99.90;;;;;;5053418;28;20189;-71
2022/04/28 05:07:33;;;;;;;16.20;3.67;;;13.50;99.90;;;;;;5061193;28;20191;-70
2022/04/28 05:10:11;;;;;;;17.00;3.77;;;13.50;99.90;;;;;;5064338;28;20193;-71
2022/04/28 05:12:38;;;;;;;12.97;3.30;;;13.60;99.90;;;;;;5049059;28;20285;-71
2022/04/28 05:15:05;;;;;;;12.03;3.67;;;13.60;99.90;;;;;;5053944;28;20218;-71
2022/04/28 05:17:31;;;;;;;8.17;3.27;;;13.60;99.90;;;;;;5071549;28;20187;-71
2022/04/28 05:19:58;;;;;;;9.23;3.70;;;13.70;99.90;;;;;;5067998;28;20198;-71
2022/04/28 05:22:25;;;;;;;12.83;3.77;;;13.70;99.90;;;;;;5060199;28;20336;-71
2022/04/28 05:24:51;;;;;;;14.20;3.37;;;13.70;99.90;;;;;;5061218;28;20192;-71
2022/04/28 05:27:21;;;;;;;11.97;3.73;;;13.80;99.90;;;;;;5057633;28;20753;-71
2022/04/28 05:29:52;;;;;;;12.77;3.30;;;13.80;99.90;;;;;;5072181;28;20205;-71
2022/04/28 05:32:23;;;;;;;16.90;3.37;;;13.90;99.90;;;;;;5089031;28;20339;-71
2022/04/28 05:34:50;;;;;;;13.30;3.33;;;13.90;99.90;;;;;;5074051;28;20194;-71
2022/04/28 05:37:16;;;;;;;13.17;3.10;;;14.00;99.90;;;;;;5058238;28;20723;-71
2022/04/28 05:39:44;;;;;;;16.10;3.70;;;14.00;99.90;;;;;;5071193;28;20183;-71
2022/04/28 05:42:10;;;;;;;12.77;2.90;;;14.00;99.90;;;;;;5064144;28;20644;-72
2022/04/28 05:47:24;;;;;;;10.50;3.50;;;14.10;99.90;;;;;;5082623;28;20201;-71
2022/04/28 05:49:53;;;;;;;22.37;3.93;;;14.20;99.90;;;;;;5071824;28;20647;-71
2022/04/28 05:52:22;;;;;;;13.87;2.97;;;14.20;99.90;;;;;;5048277;28;20286;-71
2022/04/28 05:54:49;;;;;;;11.93;3.57;;;14.30;99.90;;;;;;5062478;28;20217;-71
2022/04/28 05:57:18;;;;;;;19.37;3.53;;;14.30;99.90;;;;;;5069462;28;21140;-71
2022/04/28 05:59:45;;;;;;;15.33;4.40;;;14.40;99.90;;;;;;5069223;28;20216;-71
2022/04/28 06:02:11;;;;;;;12.63;3.70;;;14.50;99.90;;;;;;5062575;28;20187;-71
2022/04/28 06:04:37;;;;;;;16.60;3.80;;;14.50;99.90;;;;;;5083915;28;20199;-71
2022/04/28 06:07:08;;;;;;;11.50;2.97;;;14.60;99.90;;;;;;5090911;28;20198;-71
2022/04/28 06:09:35;;;;;;;17.80;3.20;;;14.70;99.90;;;;;;5063405;28;20194;-71
2022/04/28 06:12:04;;;;;;;13.57;2.40;;;14.70;99.90;;;;;;5040587;28;20186;-71
2022/04/28 06:14:35;;;;;;;20.03;3.23;;;14.80;99.90;;;;;;5067061;28;20215;-71
2022/04/28 06:17:02;;;;;;;14.37;3.30;;;14.80;99.90;;;;;;5068913;28;20182;-71
2022/04/28 06:19:30;;;;;;;14.47;4.13;;;14.90;99.90;;;;;;5082277;28;20202;-71
2022/04/28 06:21:57;;;;;;;13.10;4.07;;;15.00;99.90;;;;;;5059148;28;20543;-71
2022/04/28 06:24:25;;;;;;;17.17;3.40;;;15.00;99.90;;;;;;5068486;28;20195;-71
2022/04/28 06:26:58;;;;;;;12.33;3.00;;;15.10;99.90;;;;;;5052494;28;20277;-71
2022/04/28 06:29:26;;;;;;;17.93;3.40;;;15.20;99.90;;;;;;5062753;28;20190;-71
2022/04/28 06:31:56;;;;;;;16.73;3.13;;;15.40;99.90;;;;;;5067559;28;20218;-71
2022/04/28 06:34:22;;;;;;;16.60;3.10;;;15.50;99.90;;;;;;5045083;28;20268;-72
2022/04/28 06:36:49;;;;;;;16.17;3.03;;;15.60;99.90;;;;;;5079257;28;20878;-71
2022/04/28 06:39:15;;;;;;;18.33;3.97;;;15.70;99.90;;;;;;5067899;28;20186;-71
2022/04/28 06:41:42;;;;;;;9.93;3.53;;;15.80;99.90;;;;;;5067221;28;20235;-72
2022/04/28 06:44:12;;;;;;;14.73;3.40;;;15.80;99.90;;;;;;5071429;28;20583;-71
2022/04/28 06:46:38;;;;;;;16.30;4.87;;;15.80;99.90;;;;;;5050959;28;20210;-71
2022/04/28 06:49:07;;;;;;;14.17;3.50;;;15.90;99.90;;;;;;5077511;28;20198;-71
2022/04/28 06:51:33;;;;;;;28.43;4.67;;;16.00;99.90;;;;;;5085851;28;20343;-71
2022/04/28 06:54:05;;;;;;;14.57;3.67;;;16.00;99.90;;;;;;5063098;28;20199;-72
2022/04/28 06:56:37;;;;;;;18.93;3.93;;;16.10;99.90;;;;;;5066116;28;20191;-71
2022/04/28 06:59:05;;;;;;;15.67;3.90;;;16.20;99.90;;;;;;5084808;28;20268;-72
2022/04/28 07:01:32;;;;;;;16.50;3.10;;;16.30;99.90;;;;;;5060318;28;20190;-71
2022/04/28 07:03:58;;;;;;;17.97;3.47;;;16.30;99.90;;;;;;5066008;28;20197;-72
2022/04/28 07:06:27;;;;;;;18.50;3.33;;;16.40;99.90;;;;;;5066084;28;20186;-71
2022/04/28 07:08:59;;;;;;;15.67;3.00;;;16.40;99.90;;;;;;5074851;28;20631;-72
2022/04/28 07:11:28;;;;;;;12.13;2.63;;;16.60;99.90;;;;;;5067535;28;20183;-72
2022/04/28 07:13:56;;;;;;;16.53;3.23;;;16.60;99.90;;;;;;5064266;28;20190;-71
2022/04/28 07:16:25;;;;;;;19.03;3.17;;;16.60;99.90;;;;;;5052053;28;20190;-72
2022/04/28 07:18:52;;;;;;;15.37;3.50;;;16.70;99.90;;;;;;5056295;28;20214;-72
2022/04/28 07:21:18;;;;;;;24.70;3.40;;;16.80;99.90;;;;;;5085846;28;20246;-72
2022/04/28 07:23:47;;;;;;;13.73;3.40;;;16.90;99.90;;;;;;5062701;28;20191;-72
2022/04/28 07:26:16;;;;;;;16.20;3.17;;;16.90;99.90;;;;;;5048988;28;20179;-72
2022/04/28 07:28:48;;;;;;;20.57;3.33;;;17.00;99.90;;;;;;5059734;28;20925;-72
2022/04/28 07:31:15;;;;;;;11.97;2.97;;;17.10;99.90;;;;;;5059771;28;20190;-71
2022/04/28 07:33:44;;;;;;;13.50;3.30;;;17.20;99.90;;;;;;5047652;28;20244;-71
2022/04/28 07:36:13;;;;;;;13.23;3.30;;;17.30;99.90;;;;;;5049855;28;20217;-72
2022/04/28 07:38:43;;;;;;;21.03;3.40;;;17.40;99.90;;;;;;5052402;28;20186;-72
2022/04/28 07:41:13;;;;;;;23.53;3.47;;;17.40;99.90;;;;;;5071308;28;20269;-71
2022/04/28 07:43:41;;;;;;;15.97;3.00;;;17.60;99.90;;;;;;5064110;28;20652;-71
2022/04/28 07:46:09;;;;;;;15.27;3.17;;;17.60;99.90;;;;;;5085004;28;20215;-71
2022/04/28 07:48:36;;;;;;;11.73;2.83;;;17.80;99.90;;;;;;5078940;28;20186;-71
2022/04/28 07:51:04;;;;;;;14.37;3.57;;;17.90;99.90;;;;;;5080241;28;20236;-72
2022/04/28 07:53:35;;;;;;;15.20;3.63;;;17.90;99.90;;;;;;5048255;28;20228;-72
2022/04/28 07:56:17;;;;;;;14.53;3.50;;;18.10;99.90;;;;;;5072785;28;20745;-71
2022/04/28 07:58:45;;;;;;;16.90;3.30;;;18.20;99.90;;;;;;5053775;28;20284;-72
2022/04/28 08:01:18;;;;;;;17.67;3.07;;;18.20;99.90;;;;;;5075160;28;20190;-71
2022/04/28 08:03:54;;;;;;;18.73;3.70;;;18.30;99.90;;;;;;5067233;28;20200;-72
2022/04/28 08:06:21;;;;;;;20.20;3.73;;;18.50;99.90;;;;;;5051853;28;20206;-72
2022/04/28 08:08:50;;;;;;;23.20;3.73;;;18.50;99.90;;;;;;5068765;28;20185;-72
2022/04/28 08:11:20;;;;;;;15.50;4.00;;;18.60;99.90;;;;;;5060787;28;20286;-72
2022/04/28 08:13:54;;;;;;;20.23;3.47;;;18.70;99.90;;;;;;5061593;28;20240;-72
2022/04/28 08:16:23;;;;;;;15.93;3.67;;;18.70;99.90;;;;;;5082821;28;20297;-72
2022/04/28 08:18:54;;;;;;;24.70;3.57;;;18.80;99.90;;;;;;5050337;28;20186;-72
2022/04/28 08:21:22;;;;;;;24.83;3.87;;;18.90;99.90;;;;;;5046975;28;20178;-72
2022/04/28 08:23:50;;;;;;;18.77;3.40;;;19.00;99.90;;;;;;5047814;28;20674;-72
2022/04/28 08:26:17;;;;;;;15.63;3.33;;;19.10;99.90;;;;;;5051533;28;20238;-73
2022/04/28 08:28:45;;;;;;;17.67;3.47;;;19.20;99.90;;;;;;5063499;28;20187;-72
2022/04/28 08:31:13;;;;;;;29.30;3.47;;;19.20;99.90;;;;;;5082151;28;20231;-72
2022/04/28 08:33:41;;;;;;;12.40;3.03;;;19.30;99.90;;;;;;5059793;28;20186;-71
2022/04/28 08:36:08;;;;;;;21.13;3.53;;;19.40;99.90;;;;;;5050473;28;20210;-72
2022/04/28 08:38:37;;;;;;;18.07;3.47;;;19.40;99.90;;;;;;5050855;28;20197;-71
2022/04/28 08:41:13;;;;;;;19.57;3.13;;;19.50;99.90;;;;;;5047601;28;20190;-72
2022/04/28 08:43:44;;;;;;;16.50;3.00;;;19.60;99.90;;;;;;5066774;28;20197;-72
2022/04/28 08:49:00;;;;;;;22.83;3.70;;;19.70;99.90;;;;;;5080637;28;20265;-71
2022/04/28 08:51:29;;;;;;;19.77;3.63;;;19.90;99.90;;;;;;5068833;28;20186;-72
2022/04/28 08:54:05;;;;;;;13.73;3.60;;;20.00;99.90;;;;;;5065993;28;20178;-72
2022/04/28 08:56:32;;;;;;;16.30;3.33;;;20.10;99.90;;;;;;5065061;28;20193;-72
2022/04/28 08:59:00;;;;;;;17.33;3.67;;;20.10;99.90;;;;;;5051524;28;20217;-71
2022/04/28 09:01:35;;;;;;;17.87;3.13;;;20.20;99.90;;;;;;5065998;28;20687;-71
2022/04/28 09:04:05;;;;;;;16.87;3.30;;;20.20;99.90;;;;;;5048476;28;20269;-72
2022/04/28 09:06:37;;;;;;;21.83;4.50;;;20.40;99.90;;;;;;5053382;28;20193;-72
2022/04/28 09:09:13;;;;;;;21.47;4.00;;;20.40;99.90;;;;;;5068633;28;20186;-72
2022/04/28 09:11:42;;;;;;;17.23;3.60;;;20.50;99.90;;;;;;5066113;28;20581;-71
2022/04/28 09:14:15;;;;;;;13.43;3.20;;;20.60;99.90;;;;;;5083979;28;20220;-74
2022/04/28 09:17:08;;;;;;;15.60;3.70;;;20.70;99.90;;;;;;5048744;28;20186;-71
2022/04/28 09:19:39;;;;;;;15.67;4.93;;;20.70;99.90;;;;;;5063628;28;20738;-71
2022/04/28 09:22:13;;;;;;;15.50;3.50;;;20.90;99.90;;;;;;5058129;28;20194;-72
2022/04/28 09:24:45;;;;;;;17.23;3.40;;;20.90;99.90;;;;;;5052070;28;20196;-73
2022/04/28 09:27:17;;;;;;;16.70;3.67;;;20.90;99.90;;;;;;5067804;28;20255;-73
2022/04/28 09:29:51;;;;;;;22.93;3.40;;;21.00;99.90;;;;;;5067711;28;20630;-72
2022/04/28 09:32:21;;;;;;;15.67;3.70;;;21.10;99.90;;;;;;5056957;28;20263;-72
2022/04/28 09:34:53;;;;;;;20.90;3.60;;;21.20;99.90;;;;;;5047786;28;20252;-72
2022/04/28 09:37:27;;;;;;;15.00;3.33;;;21.20;99.90;;;;;;5058807;28;20687;-72
2022/04/28 09:42:46;;;;;;;16.70;3.60;;;21.40;99.90;;;;;;5066057;28;20202;-72
2022/04/28 09:45:14;;;;;;;13.37;3.40;;;21.50;99.90;;;;;;5086290;28;20190;-73
2022/04/28 09:47:40;;;;;;;14.70;3.93;;;21.50;99.90;;;;;;5064531;28;20754;-72
2022/04/28 09:50:18;;;;;;;14.97;3.50;;;21.70;99.90;;;;;;5049948;28;20187;-72
2022/04/28 09:52:54;;;;;;;17.83;3.40;;;21.60;99.90;;;;;;5059237;28;20190;-72
2022/04/28 09:55:24;;;;;;;15.90;3.77;;;21.80;99.90;;;;;;5053337;28;20206;-73
2022/04/28 09:57:53;;;;;;;20.77;4.50;;;21.80;99.90;;;;;;5074170;28;20202;-72
2022/04/28 10:00:22;;;;;;;18.23;3.90;;;21.90;99.90;;;;;;5061530;28;20183;-73
2022/04/28 10:03:03;;;;;;;17.60;3.33;;;22.00;99.90;;;;;;5066018;28;20841;-72
2022/04/28 10:05:31;;;;;;;19.37;3.87;;;22.10;99.90;;;;;;5043245;28;20190;-72
2022/04/28 10:08:01;;;;;;;22.98;3.83;;;22.10;99.90;;;;;;5036918;28;20182;-72
2022/04/28 10:10:31;;;;;;;27.60;5.10;;;22.10;99.90;;;;;;5056142;28;20685;-72
2022/04/28 10:13:00;;;;;;;18.17;3.17;;;22.20;99.90;;;;;;5048153;28;20664;-72
2022/04/28 10:15:33;;;;;;;15.63;3.13;;;22.20;99.90;;;;;;5034824;28;20214;-73
2022/04/28 10:18:16;;;;;;;8.73;2.60;;;22.30;99.90;;;;;;5037688;28;20198;-73
2022/04/28 10:20:50;;;;;;;18.98;3.53;;;22.30;99.90;;;;;;5059820;28;20209;-72
2022/04/28 10:35:08;;;;;;;15.63;3.70;;;22.60;99.90;;;;;;5068973;28;20209;-73
2022/04/28 10:37:45;;;;;;;23.67;4.23;;;22.60;99.90;;;;;;5067874;28;20236;-73
2022/04/28 10:40:21;;;;;;;10.35;3.10;;;22.60;99.90;;;;;;5069847;28;20276;-73
2022/04/28 10:42:47;;;;;;;13.23;3.80;;;22.60;99.90;;;;;;5060236;28;20252;-73
2022/04/28 10:45:23;;;;;;;14.30;2.80;;;22.60;99.90;;;;;;5052304;28;20247;-73
2022/04/28 10:48:33;;;;;;;14.75;3.75;;;22.60;99.90;;;;;;5061190;28;20525;-72
2022/04/28 10:51:04;;;;;;;21.13;3.57;;;22.70;99.90;;;;;;5079404;28;20876;-73
2022/04/28 10:53:32;;;;;;;21.13;3.60;;;22.70;99.90;;;;;;5085674;28;20190;-73
2022/04/28 10:56:12;;;;;;;9.93;3.17;;;22.80;99.90;;;;;;5061058;28;20314;-73
2022/04/28 10:58:42;;;;;;;18.02;3.35;;;22.80;99.90;;;;;;5050207;28;20205;-72
2022/04/28 11:01:38;;;;;;;25.08;3.80;;;22.90;99.90;;;;;;5047092;28;20269;-72
2022/04/28 11:04:13;;;;;;;19.50;3.80;;;22.90;99.90;;;;;;5060631;28;20182;-73
2022/04/28 11:06:51;;;;;;;26.42;3.88;;;22.90;99.90;;;;;;5076782;28;20186;-72
2022/04/28 11:09:35;;;;;;;15.67;3.53;;;22.90;99.90;;;;;;5043095;28;20187;-72
2022/04/28 11:12:18;;;;;;;18.20;3.17;;;22.90;99.90;;;;;;5058788;28;20183;-72
2022/04/28 11:14:48;;;;;;;18.70;3.10;;;22.90;99.90;;;;;;5060341;28;20296;-72
2022/04/28 11:17:21;;;;;;;23.00;3.87;;;22.90;99.90;;;;;;5076193;28;20191;-73
2022/04/28 11:19:47;;;;;;;15.38;3.13;;;22.90;99.90;;;;;;5085223;28;20194;-73
2022/04/28 11:22:14;;;;;;;14.90;3.30;;;22.90;99.90;;;;;;5067773;28;20705;-72
2022/04/28 11:24:45;;;;;;;18.03;3.50;;;23.00;99.90;;;;;;5061211;28;20191;-72
2022/04/28 11:27:25;;;;;;;13.85;3.47;;;22.90;99.90;;;;;;5064992;28;20283;-72
2022/04/28 11:29:56;;;;;;;14.93;2.95;;;22.90;99.90;;;;;;5075269;28;20193;-72
2022/04/28 11:32:23;;;;;;;15.07;3.10;;;22.90;99.90;;;;;;5079967;28;20216;-72
2022/04/28 11:34:52;;;;;;;17.92;3.38;;;22.90;99.90;;;;;;5057202;28;20648;-72
2022/04/28 11:37:25;;;;;;;13.07;2.85;;;23.00;99.90;;;;;;5060779;28;20187;-73
2022/04/28 11:39:55;;;;;;;16.45;3.22;;;23.00;99.90;;;;;;5066689;28;20286;-72
2022/04/28 11:42:24;;;;;;;18.20;3.20;;;23.00;99.90;;;;;;5066579;28;20209;-72
2022/04/28 11:44:59;;;;;;;12.20;3.22;;;23.00;99.90;;;;;;5058923;28;20183;-72
2022/04/28 11:47:27;;;;;;;19.75;4.10;;;23.00;99.90;;;;;;5064383;28;20220;-72
2022/04/28 11:50:02;;;;;;;14.60;3.28;;;23.10;99.90;;;;;;5066991;28;20190;-72
2022/04/28 11:52:32;;;;;;;16.83;3.08;;;23.10;99.90;;;;;;5071732;28;20209;-72
2022/04/28 11:55:08;;;;;;;10.50;2.90;;;23.10;99.90;;;;;;5074553;28;20224;-73
2022/04/28 11:57:44;;;;;;;21.80;3.80;;;23.10;99.90;;;;;;5071815;28;20182;-73
2022/04/28 12:00:12;;;;;;;16.23;3.55;;;23.10;99.90;;;;;;5061488;28;20209;-72
2022/04/28 12:02:41;;;;;;;11.83;2.97;;;23.10;99.90;;;;;;5069463;28;20190;-73
2022/04/28 12:05:30;;;;;;;15.32;3.05;;;23.20;99.90;;;;;;5068813;28;20250;-72
2022/04/28 12:07:57;;;;;;;17.58;2.95;;;23.10;99.90;;;;;;5070261;28;20720;-72
2022/04/28 12:16:18;;;;;;;20.90;3.72;;;23.10;99.90;;;;;;5074199;28;20221;-72
2022/04/28 12:21:42;;;;;;;12.50;3.45;;;23.20;99.90;;;;;;5080573;28;20239;-73
2022/04/28 12:24:19;;;;;;;18.55;3.83;;;23.20;99.90;;;;;;5049376;28;20213;-73
2022/04/28 12:26:49;;;;;;;16.13;3.92;;;23.20;99.90;;;;;;5088224;28;20217;-72
2022/04/28 12:29:19;;;;;;;16.70;3.83;;;23.10;99.90;;;;;;5064586;28;20190;-73
2022/04/28 12:31:57;;;;;;;16.80;3.63;;;23.10;99.90;;;;;;5062686;28;20206;-72
2022/04/28 12:34:25;;;;;;;23.67;3.17;;;23.10;99.90;;;;;;5060239;28;20939;-72
2022/04/28 12:37:00;;;;;;;14.05;3.47;;;23.10;99.90;;;;;;5044599;28;20533;-73
2022/04/28 12:39:28;;;;;;;11.80;3.33;;;23.00;99.90;;;;;;5069164;28;20210;-72
2022/04/28 12:41:55;;;;;;;14.32;2.63;;;23.00;99.90;;;;;;5074815;28;20680;-73
2022/04/28 12:44:24;;;;;;;17.40;3.58;;;22.90;99.90;;;;;;5083329;28;20214;-73
2022/04/28 12:47:05;;;;;;;17.77;4.22;;;22.90;99.90;;;;;;5072239;28;20198;-72
2022/04/28 12:49:48;;;;;;;17.08;3.67;;;22.90;99.90;;;;;;5059778;28;20239;-73
2022/04/28 12:52:34;;;;;;;16.80;3.27;;;22.90;99.90;;;;;;5055400;28;20217;-73
2022/04/28 12:55:07;;;;;;;14.43;3.30;;;22.90;99.90;;;;;;5064100;28;20242;-73
2022/04/28 12:57:34;;;;;;;16.70;3.28;;;22.80;99.90;;;;;;5067153;28;20835;-72
2022/04/28 13:00:13;;;;;;;17.67;3.20;;;22.80;99.90;;;;;;5050394;28;20198;-72
2022/04/28 13:02:52;;;;;;;11.05;2.67;;;22.80;99.90;;;;;;5045693;28;20178;-72
2022/04/28 13:05:20;;;;;;;17.20;3.23;;;22.80;99.90;;;;;;5068057;28;20183;-72
2022/04/28 13:07:49;;;;;;;16.43;3.07;;;22.70;99.90;;;;;;5063877;28;20273;-72
2022/04/28 13:10:17;;;;;;;16.60;3.50;;;22.60;99.90;;;;;;5061655;28;20190;-72
2022/04/28 13:12:44;;;;;;;21.63;3.60;;;22.60;99.90;;;;;;5083685;28;20224;-73
2022/04/28 13:15:11;;;;;;;18.03;3.27;;;22.60;99.90;;;;;;5056847;28;20550;-73
2022/04/28 13:17:52;;;;;;;14.07;3.23;;;22.60;99.90;;;;;;5072311;28;20187;-72
2022/04/28 13:20:19;;;;;;;16.83;3.17;;;22.60;99.90;;;;;;5062495;28;20269;-72
2022/04/28 13:22:46;;;;;;;22.13;3.40;;;22.60;99.90;;;;;;5073156;28;20187;-73
2022/04/28 13:25:15;;;;;;;18.70;3.57;;;22.60;99.90;;;;;;5054954;28;20243;-71
2022/04/28 13:27:44;;;;;;;14.93;3.50;;;22.60;99.90;;;;;;5072280;28;20201;-73
2022/04/28 13:30:13;;;;;;;19.80;3.47;;;22.60;99.90;;;;;;5065436;28;20178;-72
2022/04/28 13:32:40;;;;;;;19.88;3.45;;;22.70;99.90;;;;;;5056836;28;20216;-72
2022/04/28 13:35:07;;;;;;;20.17;4.20;;;22.70;99.90;;;;;;5052863;28;20211;-73